Latest Weather Observations for Gabo Island

IDV60801

Issued at 10:02 pm EST Thursday 28 May 2015 (issued every 30 minutes, with the page automatically refreshed every 10 minutes)

About weather observations | Map of weather stations | Latest weather observations for VIC | Other Formats
Station Details ID: 084016 Name: GABO ISLAND LIGHTHOUSE Lat: -37.57 Lon: 149.92 Height: 15.2 m
Data from the previous 72 hours. | See also: Recent months at Gabo Island
Date/Time
EST
Temp
°C
App
Temp
°C
Dew
Point
Rel
Hum
%
Delta-T
°C
Wind Press
QNH
hPa
Press
MSL
hPa
Rain
since 9 am
mm
Dir
 
Spd
km/h
Gust
km/h
Spd
kts
Gust
kts
28/10:00pm 15.2 13.4 10.7 74 2.4 NNW 11 13 6 7 1015.7 - 0.0
28/09:30pm 14.8 13.5 11.2 79 1.9 W 9 11 5 6 1015.9 - 0.0
28/09:00pm 14.7 13.9 10.9 78 2.0 NNW 6 9 3 5 1016.0 1015.8 0.0
28/08:30pm 15.5 13.5 11.4 76 2.2 N 13 17 7 9 1016.1 - 0.0
28/08:00pm 15.4 13.0 11.3 76 2.2 N 15 20 8 11 1016.0 - 0.0
28/07:30pm 14.5 12.2 10.3 76 2.2 N 13 15 7 8 1016.4 - 0.0
28/07:00pm 14.4 13.3 12.0 85 1.3 NNE 9 11 5 6 1016.4 - 0.0
28/06:30pm 14.4 12.4 11.6 83 1.5 NNE 13 15 7 8 1016.4 - 0.0
28/06:00pm 14.7 12.9 12.1 84 1.4 N 13 19 7 10 1016.2 1016.2 0.0
28/05:30pm 15.1 12.6 12.2 83 1.6 N 17 17 9 9 1016.3 - 0.0
28/05:00pm 15.9 13.4 11.2 73 2.5 N 15 20 8 11 1016.2 - 0.0
28/04:30pm 16.3 13.7 11.9 75 2.4 N 17 19 9 10 1016.2 - 0.0
28/04:00pm 16.8 14.9 13.0 78 2.1 NNE 15 17 8 9 1016.5 - 0.0
28/03:30pm 17.4 15.8 12.9 75 2.5 NNE 13 17 7 9 1016.6 - 0.0
28/03:00pm 18.2 16.9 13.8 75 2.5 NNE 13 17 7 9 1016.6 1016.6 0.0
28/02:30pm 19.1 17.5 12.7 66 3.6 NNE 13 17 7 9 1016.6 - 0.0
28/02:00pm 19.8 18.0 10.8 56 4.9 N 11 17 6 9 1017.1 - 0.0
28/01:30pm 19.4 17.6 9.6 53 5.2 NNW 9 13 5 7 1017.3 - 0.0
28/01:00pm 20.0 17.5 8.0 46 6.2 NW 11 15 6 8 1017.7 - 0.0
28/12:30pm 20.2 19.0 10.4 53 5.3 NNE 7 9 4 5 1018.0 - 0.0
28/12:00pm 18.8 17.8 12.3 66 3.6 NNE 9 17 5 9 1018.3 1018.5 0.0
28/11:30am 19.6 17.1 9.6 52 5.3 NNE 13 17 7 9 1019.0 - 0.0
28/11:00am 17.5 16.3 10.3 62 3.8 W 7 13 4 7 1019.5 - 0.0
28/10:30am 17.2 15.0 9.5 60 4.0 N 11 13 6 7 1019.9 - 0.0
28/10:00am 17.1 14.7 9.9 62 3.8 W 13 15 7 8 1020.2 - 0.0
28/09:30am 18.7 16.2 8.4 51 5.3 N 11 15 6 8 1020.1 - 0.0
28/09:00am 16.5 15.0 10.5 67 3.2 NNE 9 13 5 7 1020.1 1020.1 0.0
28/08:30am 15.7 14.4 9.9 68 3.0 NNE 7 9 4 5 1020.1 - 0.0
28/08:00am 13.6 12.2 9.5 76 2.1 NNE 7 11 4 6 1020.2 - 0.0
28/07:30am 14.0 11.6 8.6 70 2.7 NNW 11 13 6 7 1020.1 - 0.0
28/07:00am 14.7 11.0 7.8 63 3.4 NW 17 20 9 11 1019.8 - 0.0
28/06:30am 14.2 11.5 7.5 64 3.3 NW 11 15 6 8 1019.7 - 0.0
28/06:00am 13.0 11.5 8.6 74 2.2 NNE 6 6 3 3 1019.4 1019.4 0.0
28/05:30am 14.0 12.1 7.5 65 3.2 NW 7 11 4 6 1019.3 - 0.0
28/05:00am 12.8 11.1 8.4 74 2.2 NE 7 11 4 6 1019.3 - 0.0
28/04:30am 13.6 11.1 8.4 71 2.6 NW 11 15 6 8 1019.4 - 0.0
28/04:00am 13.9 9.8 7.8 66 3.0 NW 19 20 10 11 1019.3 - 0.0
28/03:30am 12.6 9.9 9.0 79 1.8 W 13 15 7 8 1019.3 - 0.0
28/03:00am 14.6 11.1 7.0 60 3.7 NW 15 17 8 9 1019.5 1019.5 0.0
28/02:30am 13.6 10.6 7.9 68 2.8 NW 13 17 7 9 1019.7 - 0.0
28/02:00am 14.6 11.1 7.3 61 3.6 NW 15 17 8 9 1019.8 - 0.0
28/01:30am 14.6 12.0 7.7 63 3.4 NW 11 15 6 8 1019.9 - 0.0
28/01:00am 14.7 11.2 7.4 61 3.6 NW 15 19 8 10 1019.9 - 0.0
28/12:30am 14.7 11.8 8.1 64 3.3 NW 13 17 7 9 1020.0 - 0.0
28/12:00am 14.1 11.2 8.1 67 3.0 NNW 13 15 7 8 1020.2 1020.2 0.0
 
Date/Time
EST
Temp
°C
App
Temp
°C
Dew
Point
Rel
Hum
%
Delta-T
°C
Wind Press
QNH
hPa
Press
MSL
hPa
Rain
since 9 am
mm
Dir
 
Spd
km/h
Gust
km/h
Spd
kts
Gust
kts
27/11:30pm 14.3 11.9 8.5 68 2.9 NW 11 15 6 8 1020.3 - 0.0
27/11:00pm 13.1 11.3 9.6 79 1.8 WNW 9 15 5 8 1020.2 - 0.0
27/10:30pm 12.0 10.2 9.6 85 1.2 W 9 11 5 6 1020.2 - 0.0
27/10:00pm 13.0 11.3 9.7 80 1.7 NW 9 13 5 7 1020.3 - 0.0
27/09:30pm 13.1 10.0 7.1 67 2.9 N 13 17 7 9 1020.4 - 0.0
27/09:00pm 12.7 10.9 7.1 69 2.7 N 6 13 3 7 1020.3 1020.3 0.0
27/08:30pm 12.3 10.0 7.6 73 2.3 N 9 13 5 7 1020.4 - 0.0
27/08:00pm 11.9 8.6 8.0 77 1.9 N 15 15 8 8 1020.3 - 0.0
27/07:30pm 12.8 9.2 8.4 74 2.2 N 17 20 9 11 1020.2 - 0.0
27/07:00pm 13.2 10.3 9.5 78 1.9 N 15 17 8 9 1020.1 - 0.0
27/06:30pm 13.6 10.6 9.3 75 2.2 N 15 19 8 10 1020.0 - 0.0
27/06:00pm 14.0 11.0 9.3 73 2.4 NNE 15 17 8 9 1019.9 1020.0 0.0
27/05:30pm 14.7 11.9 10.1 74 2.4 NNE 15 17 8 9 1019.9 - 0.0
27/05:00pm 14.9 11.8 8.8 67 3.1 NNE 15 19 8 10 1019.8 - 0.0
27/04:30pm 15.6 12.5 8.9 64 3.4 NE 15 19 8 10 1019.7 - 0.0
27/04:00pm 15.4 11.8 8.5 63 3.5 NE 17 19 9 10 1019.7 - 0.0
27/03:30pm 16.3 13.2 7.2 55 4.5 ENE 13 13 7 7 1019.8 - 0.0
27/03:00pm 16.7 13.6 5.4 47 5.4 ENE 11 13 6 7 1019.7 1019.7 0.0
27/02:30pm 16.9 14.0 4.9 45 5.7 ENE 9 11 5 6 1019.7 - 0.0
27/02:00pm 17.3 15.0 4.6 43 6.0 ESE 6 7 3 4 1020.0 - 0.0
27/01:30pm 16.7 14.9 8.0 56 4.4 SE 7 9 4 5 1020.1 - 0.0
27/01:00pm 16.5 15.1 9.6 63 3.6 S 7 9 4 5 1020.3 - 0.0
27/12:30pm 17.1 15.5 8.7 57 4.3 WSW 7 11 4 6 1020.9 - 0.0
27/12:00pm 15.9 13.9 8.6 62 3.7 W 9 11 5 6 1021.3 1021.3 0.0
27/11:30am 15.8 12.8 9.2 65 3.4 W 15 19 8 10 1021.8 - 0.0
27/11:00am 15.2 13.5 10.0 71 2.7 SW 9 13 5 7 1022.1 - 0.0
27/10:30am 14.6 12.9 9.7 72 2.5 WSW 9 13 5 7 1022.1 - 0.0
27/10:00am 15.2 14.1 9.8 70 2.8 SW 6 9 3 5 1022.3 - 0.0
27/09:30am 14.9 13.7 9.7 71 2.7 N 6 7 3 4 1022.6 - 0.0
27/09:00am 12.5 10.5 10.0 85 1.3 WNW 11 13 6 7 1022.7 1022.8 0.0
27/08:30am 12.6 10.9 9.9 83 1.4 NW 9 17 5 9 1022.9 - 0.0
27/08:00am 12.5 11.0 9.3 81 1.6 NNW 7 9 4 5 1022.9 - 0.0
27/07:30am 12.2 9.8 8.8 80 1.7 N 11 11 6 6 1022.8 - 0.0
27/07:00am 11.7 9.2 8.4 80 1.6 N 11 13 6 7 1022.7 - 0.0
27/06:30am 12.1 9.6 8.2 77 1.9 N 11 15 6 8 1022.4 - 0.0
27/06:00am 11.9 9.0 8.0 77 1.9 N 13 13 7 7 1022.2 1022.2 0.0
27/05:30am 12.7 9.3 7.6 71 2.5 N 15 19 8 10 1022.3 - 0.0
27/05:00am 12.0 9.3 7.4 73 2.2 N 11 13 6 7 1022.4 - 0.0
27/04:30am 11.9 10.1 9.5 85 1.2 N 9 11 5 6 1022.7 - 0.0
27/04:00am 13.2 11.2 10.1 81 1.6 ENE 11 15 6 8 1022.7 - 0.0
27/03:30am 12.9 10.8 11.0 88 1.0 ENE 13 15 7 8 1022.8 - 0.0
27/03:00am 11.9 10.6 10.1 89 0.9 WNW 7 9 4 5 1023.8 1023.9 0.0
27/02:30am 12.1 10.4 9.9 86 1.1 WNW 9 11 5 6 1024.1 - 0.0
27/02:00am 11.7 10.4 9.3 85 1.2 NW 6 7 3 4 1024.3 - 0.0
27/01:30am 11.8 10.9 9.4 85 1.2 NNE 4 7 2 4 1024.3 - 0.0
27/01:00am 12.0 11.8 9.2 83 1.4 CALM 0 0 0 0 1024.4 - 0.0
27/12:30am 11.6 11.5 9.6 87 1.0 CALM 0 0 0 0 1024.7 - 0.0
27/12:00am 11.5 10.1 9.7 89 0.9 W 7 9 4 5 1024.9 1025.0 0.0
 
Date/Time
EST
Temp
°C
App
Temp
°C
Dew
Point
Rel
Hum
%
Delta-T
°C
Wind Press
QNH
hPa
Press
MSL
hPa
Rain
since 9 am
mm
Dir
 
Spd
km/h
Gust
km/h
Spd
kts
Gust
kts
26/11:30pm 11.0 9.3 8.3 83 1.3 N 7 7 4 4 1025.2 - 0.0
26/11:00pm 10.7 8.2 8.0 83 1.3 N 11 11 6 6 1025.5 - 0.0
26/10:30pm 11.2 9.3 9.0 86 1.1 NNW 9 9 5 5 1025.6 - 0.0
26/10:00pm 11.6 11.2 8.3 80 1.6 CALM 0 0 0 0 1025.9 - 0.0
26/09:30pm 11.7 10.1 8.2 79 1.7 NW 6 7 3 4 1026.3 - 0.0
26/09:00pm 12.0 10.0 7.0 71 2.4 WNW 7 9 4 5 1026.4 1026.4 0.0
26/08:30pm 12.4 10.9 8.3 76 2.0 WNW 6 7 3 4 1026.6 - 0.0
26/08:00pm 12.8 12.4 8.3 74 2.2 CALM 0 0 0 0 1026.4 - 0.0
26/07:30pm 11.9 10.3 8.2 78 1.8 NW 6 6 3 3 1026.7 - 0.0
26/07:00pm 12.7 11.4 7.8 72 2.4 WSW 4 7 2 4 1026.8 - 0.0
26/06:30pm 13.2 11.6 8.8 74 2.2 SSE 7 9 4 5 1026.6 - 0.0
26/06:00pm 13.2 11.4 8.1 71 2.5 S 7 9 4 5 1026.6 1026.7 0.0
26/05:30pm 13.4 10.8 7.9 69 2.7 S 11 13 6 7 1026.5 - 0.0
26/05:00pm 13.4 10.8 7.9 69 2.7 S 11 13 6 7 1026.5 - 0.0
26/04:30pm 13.8 11.0 8.4 70 2.7 S 13 15 7 8 1026.3 - 0.0
26/04:00pm 14.4 11.1 8.2 66 3.1 S 15 17 8 9 1026.4 - 0.0
26/03:30pm 14.9 12.0 8.3 64 3.3 S 13 15 7 8 1026.4 - 0.0
26/03:00pm 15.2 12.7 8.4 64 3.4 SSW 11 13 6 7 1026.7 1026.7 0.0
26/02:30pm 15.3 12.9 8.8 65 3.3 S 11 13 6 7 1026.7 - 0.0
26/02:00pm 15.3 12.9 8.8 65 3.3 SSW 11 13 6 7 1026.8 - 0.0
26/01:30pm 15.2 12.6 7.7 61 3.7 SW 11 15 6 8 1027.0 - 0.0
26/01:00pm 15.2 12.2 7.7 61 3.7 WSW 13 17 7 9 1027.4 - 0.0
26/12:30pm 15.2 11.7 7.2 59 3.9 W 15 19 8 10 1027.9 - 0.0
26/12:00pm 15.2 11.2 6.7 57 4.1 WNW 17 20 9 11 1028.4 1028.5 0.0
26/11:30am 14.5 10.0 6.1 57 4.0 W 19 22 10 12 1028.9 - 0.0
26/11:00am 14.3 10.2 6.3 58 3.8 W 17 20 9 11 1029.2 - 0.0
26/10:30am 13.8 9.6 5.7 58 3.8 WNW 17 20 9 11 1029.6 - 0.0
26/10:00am 13.0 8.4 5.4 60 3.5 WNW 19 20 10 11 1029.7 - 0.0
26/09:30am 12.8 8.5 5.2 60 3.5 WNW 17 20 9 11 1029.7 - 0.0
26/09:00am 12.0 7.7 5.2 63 3.1 WNW 17 22 9 12 1029.7 1029.7 0.0
26/08:30am 11.5 7.5 4.9 64 3.0 WNW 15 20 8 11 1029.5 - 0.0
26/08:00am 10.6 6.2 4.5 66 2.7 WNW 17 22 9 12 1029.3 - 0.0
26/07:30am 10.1 5.2 4.2 67 2.6 WNW 19 22 10 12 1029.3 - 0.0
26/07:00am 10.1 5.6 4.4 68 2.5 WNW 17 24 9 13 1029.3 - 0.0
26/06:30am 9.9 5.0 3.9 66 2.6 NW 19 24 10 13 1029.2 - 0.0
26/06:00am 9.8 4.9 4.3 68 2.4 WNW 19 24 10 13 1028.9 1028.9 0.0
26/05:30am 9.5 4.7 4.5 71 2.2 WNW 19 24 10 13 1028.6 - 0.0
26/05:00am 9.7 5.3 4.5 70 2.3 WNW 17 24 9 13 1028.7 - 0.0
26/04:30am 9.7 4.9 4.5 70 2.3 WNW 19 22 10 12 1028.7 - 0.0
26/04:00am 10.0 5.5 4.3 67 2.5 WNW 17 22 9 12 1028.8 - 0.0
26/03:30am 9.9 5.5 4.5 69 2.4 WNW 17 20 9 11 1029.0 - 0.0
26/03:00am 10.2 6.6 4.8 69 2.4 WNW 13 20 7 11 1029.2 1029.2 0.0
26/02:30am 10.4 6.3 4.3 66 2.7 WNW 15 20 8 11 1029.5 - 0.0
26/02:00am 9.8 5.8 4.9 71 2.2 WNW 15 17 8 9 1029.4 - 0.0
26/01:30am 9.8 5.8 4.9 71 2.2 NW 15 19 8 10 1029.3 - 0.0
26/01:00am 10.1 6.2 5.2 71 2.2 WNW 15 19 8 10 1029.3 - 0.0
26/12:30am 10.0 6.2 5.6 74 2.0 WNW 15 19 8 10 1029.4 - 0.0
26/12:00am 10.1 6.4 6.2 77 1.8 WNW 15 20 8 11 1029.7 1029.8 0.0
 
Date/Time
EST
Temp
°C
App
Temp
°C
Dew
Point
Rel
Hum
%
Delta-T
°C
Wind Press
QNH
hPa
Press
MSL
hPa
Rain
since 9 am
mm
Dir
 
Spd
km/h
Gust
km/h
Spd
kts
Gust
kts
25/11:30pm 10.1 6.4 6.2 77 1.8 WNW 15 19 8 10 1029.8 - 0.0
25/11:00pm 10.6 6.9 6.3 75 2.0 WNW 15 20 8 11 1030.0 - 0.0
25/10:30pm 10.7 7.1 6.9 77 1.8 WNW 15 20 8 11 1030.2 - 0.0

Other Formats:

Comma delimited format used in spreadsheet applications
http://www.bom.gov.au/fwo/IDV60801/IDV60801.94933.axf

JavaScript Object Notation format (JSON) in row-major order
http://www.bom.gov.au/fwo/IDV60801/IDV60801.94933.json